sensor_id;sensor_type;location;lat;lon;timestamp;P1;durP1;ratioP1;P2;durP2;ratioP2
68438;SDS011;55421;51.600;5.718;2022-11-15T00:01:07;21.20;;;11.90;;
68438;SDS011;55421;51.600;5.718;2022-11-15T00:03:35;23.20;;;11.60;;
68438;SDS011;55421;51.600;5.718;2022-11-15T00:06:03;20.90;;;12.10;;
68438;SDS011;55421;51.600;5.718;2022-11-15T00:08:31;20.20;;;12.10;;
68438;SDS011;55421;51.600;5.718;2022-11-15T00:11:00;24.30;;;13.30;;
68438;SDS011;55421;51.600;5.718;2022-11-15T00:13:28;28.80;;;11.80;;
68438;SDS011;55421;51.600;5.718;2022-11-15T00:16:00;22.00;;;11.50;;
68438;SDS011;55421;51.600;5.718;2022-11-15T00:18:28;18.50;;;11.30;;
68438;SDS011;55421;51.600;5.718;2022-11-15T00:21:02;24.20;;;11.60;;
68438;SDS011;55421;51.600;5.718;2022-11-15T00:23:30;18.20;;;10.90;;
68438;SDS011;55421;51.600;5.718;2022-11-15T00:25:57;23.90;;;12.40;;
68438;SDS011;55421;51.600;5.718;2022-11-15T00:28:25;24.00;;;12.50;;
68438;SDS011;55421;51.600;5.718;2022-11-15T00:30:52;19.30;;;11.70;;
68438;SDS011;55421;51.600;5.718;2022-11-15T00:33:19;15.90;;;7.90;;
68438;SDS011;55421;51.600;5.718;2022-11-15T00:35:45;18.80;;;11.70;;
68438;SDS011;55421;51.600;5.718;2022-11-15T00:38:12;19.00;;;11.50;;
68438;SDS011;55421;51.600;5.718;2022-11-15T00:40:39;19.80;;;10.90;;
68438;SDS011;55421;51.600;5.718;2022-11-15T00:43:05;20.40;;;11.80;;
68438;SDS011;55421;51.600;5.718;2022-11-15T00:45:31;21.20;;;12.90;;
68438;SDS011;55421;51.600;5.718;2022-11-15T00:47:58;19.50;;;12.00;;
68438;SDS011;55421;51.600;5.718;2022-11-15T00:50:24;21.00;;;11.60;;
68438;SDS011;55421;51.600;5.718;2022-11-15T00:52:51;20.30;;;11.40;;
68438;SDS011;55421;51.600;5.718;2022-11-15T00:55:18;19.20;;;11.60;;
68438;SDS011;55421;51.600;5.718;2022-11-15T00:57:46;23.80;;;11.20;;
68438;SDS011;55421;51.600;5.718;2022-11-15T01:00:13;21.90;;;12.70;;
68438;SDS011;55421;51.600;5.718;2022-11-15T01:02:40;21.80;;;12.90;;
68438;SDS011;55421;51.600;5.718;2022-11-15T01:05:07;23.20;;;11.70;;
68438;SDS011;55421;51.600;5.718;2022-11-15T01:07:34;20.40;;;12.10;;
68438;SDS011;55421;51.600;5.718;2022-11-15T01:10:00;18.00;;;10.90;;
68438;SDS011;55421;51.600;5.718;2022-11-15T01:12:27;21.70;;;11.00;;
68438;SDS011;55421;51.600;5.718;2022-11-15T01:14:54;20.40;;;12.10;;
68438;SDS011;55421;51.600;5.718;2022-11-15T01:17:20;17.00;;;11.10;;
68438;SDS011;55421;51.600;5.718;2022-11-15T01:19:47;21.10;;;12.00;;
68438;SDS011;55421;51.600;5.718;2022-11-15T01:22:14;19.80;;;12.20;;
68438;SDS011;55421;51.600;5.718;2022-11-15T01:24:41;19.10;;;11.30;;
68438;SDS011;55421;51.600;5.718;2022-11-15T01:27:08;18.60;;;10.90;;
68438;SDS011;55421;51.600;5.718;2022-11-15T01:29:34;18.70;;;11.70;;
68438;SDS011;55421;51.600;5.718;2022-11-15T01:32:01;18.90;;;12.40;;
68438;SDS011;55421;51.600;5.718;2022-11-15T01:34:28;21.40;;;12.90;;
68438;SDS011;55421;51.600;5.718;2022-11-15T01:36:56;19.30;;;11.70;;
68438;SDS011;55421;51.600;5.718;2022-11-15T01:39:22;21.60;;;11.50;;
68438;SDS011;55421;51.600;5.718;2022-11-15T01:41:49;18.20;;;11.00;;
68438;SDS011;55421;51.600;5.718;2022-11-15T01:47:11;19.80;;;12.80;;
68438;SDS011;55421;51.600;5.718;2022-11-15T01:50:03;17.90;;;11.10;;
68438;SDS011;55421;51.600;5.718;2022-11-15T01:52:34;20.20;;;11.70;;
68438;SDS011;55421;51.600;5.718;2022-11-15T01:55:10;16.40;;;11.00;;
68438;SDS011;55421;51.600;5.718;2022-11-15T01:57:42;18.50;;;12.40;;
68438;SDS011;55421;51.600;5.718;2022-11-15T02:00:13;18.00;;;11.30;;
68438;SDS011;55421;51.600;5.718;2022-11-15T02:02:41;22.10;;;12.90;;
68438;SDS011;55421;51.600;5.718;2022-11-15T02:05:08;18.50;;;12.00;;
68438;SDS011;55421;51.600;5.718;2022-11-15T02:07:35;20.90;;;11.70;;
68438;SDS011;55421;51.600;5.718;2022-11-15T02:10:12;17.70;;;11.10;;
68438;SDS011;55421;51.600;5.718;2022-11-15T02:15:11;21.10;;;12.50;;
68438;SDS011;55421;51.600;5.718;2022-11-15T02:18:09;20.60;;;12.30;;
68438;SDS011;55421;51.600;5.718;2022-11-15T02:20:52;21.90;;;12.40;;
68438;SDS011;55421;51.600;5.718;2022-11-15T02:38:54;15.60;;;10.30;;
68438;SDS011;55421;51.600;5.718;2022-11-15T02:42:19;20.90;;;12.60;;
68438;SDS011;55421;51.600;5.718;2022-11-15T02:45:14;21.80;;;12.20;;
68438;SDS011;55421;51.600;5.718;2022-11-15T02:47:47;18.50;;;11.10;;
68438;SDS011;55421;51.600;5.718;2022-11-15T02:50:20;17.90;;;11.20;;
68438;SDS011;55421;51.600;5.718;2022-11-15T02:52:51;17.10;;;10.60;;
68438;SDS011;55421;51.600;5.718;2022-11-15T02:55:30;17.00;;;12.10;;
68438;SDS011;55421;51.600;5.718;2022-11-15T03:01:09;18.00;;;11.90;;
68438;SDS011;55421;51.600;5.718;2022-11-15T03:07:24;21.30;;;11.90;;
68438;SDS011;55421;51.600;5.718;2022-11-15T03:10:05;19.80;;;12.20;;
68438;SDS011;55421;51.600;5.718;2022-11-15T03:13:07;19.00;;;11.80;;
68438;SDS011;55421;51.600;5.718;2022-11-15T03:16:06;19.20;;;11.10;;
68438;SDS011;55421;51.600;5.718;2022-11-15T03:18:43;20.00;;;11.60;;
68438;SDS011;55421;51.600;5.718;2022-11-15T03:21:15;17.00;;;11.10;;
68438;SDS011;55421;51.600;5.718;2022-11-15T03:23:47;22.60;;;12.90;;
68438;SDS011;55421;51.600;5.718;2022-11-15T03:26:16;21.40;;;12.10;;
68438;SDS011;55421;51.600;5.718;2022-11-15T03:28:53;17.30;;;11.60;;
68438;SDS011;55421;51.600;5.718;2022-11-15T03:31:27;17.40;;;10.90;;
68438;SDS011;55421;51.600;5.718;2022-11-15T03:34:38;17.90;;;10.30;;
68438;SDS011;55421;51.600;5.718;2022-11-15T03:37:13;18.70;;;11.80;;
68438;SDS011;55421;51.600;5.718;2022-11-15T03:39:43;20.20;;;12.40;;
68438;SDS011;55421;51.600;5.718;2022-11-15T03:42:46;18.10;;;11.00;;
68438;SDS011;55421;51.600;5.718;2022-11-15T03:50:50;20.80;;;12.30;;
68438;SDS011;55421;51.600;5.718;2022-11-15T03:53:18;18.10;;;11.30;;
68438;SDS011;55421;51.600;5.718;2022-11-15T03:55:44;20.10;;;11.90;;
68438;SDS011;55421;51.600;5.718;2022-11-15T03:58:11;20.00;;;12.00;;
68438;SDS011;55421;51.600;5.718;2022-11-15T04:00:37;21.00;;;11.60;;
68438;SDS011;55421;51.600;5.718;2022-11-15T04:03:04;20.90;;;10.70;;
68438;SDS011;55421;51.600;5.718;2022-11-15T04:05:30;17.40;;;11.30;;
68438;SDS011;55421;51.600;5.718;2022-11-15T04:07:57;21.10;;;12.70;;
68438;SDS011;55421;51.600;5.718;2022-11-15T04:10:23;19.70;;;12.80;;
68438;SDS011;55421;51.600;5.718;2022-11-15T04:12:50;20.20;;;11.70;;
68438;SDS011;55421;51.600;5.718;2022-11-15T04:15:19;19.50;;;12.00;;
68438;SDS011;55421;51.600;5.718;2022-11-15T04:17:50;23.30;;;12.50;;
68438;SDS011;55421;51.600;5.718;2022-11-15T04:20:24;17.70;;;12.20;;
68438;SDS011;55421;51.600;5.718;2022-11-15T04:23:19;25.50;;;13.30;;
68438;SDS011;55421;51.600;5.718;2022-11-15T04:26:20;22.60;;;13.60;;
68438;SDS011;55421;51.600;5.718;2022-11-15T04:28:48;22.80;;;12.90;;
68438;SDS011;55421;51.600;5.718;2022-11-15T04:31:33;21.40;;;11.90;;
68438;SDS011;55421;51.600;5.718;2022-11-15T04:34:00;19.70;;;11.20;;
68438;SDS011;55421;51.600;5.718;2022-11-15T04:36:27;21.00;;;12.00;;
68438;SDS011;55421;51.600;5.718;2022-11-15T04:39:12;21.90;;;12.60;;
68438;SDS011;55421;51.600;5.718;2022-11-15T04:41:39;21.10;;;11.70;;
68438;SDS011;55421;51.600;5.718;2022-11-15T04:44:05;20.80;;;11.60;;
68438;SDS011;55421;51.600;5.718;2022-11-15T04:46:32;22.80;;;12.00;;
68438;SDS011;55421;51.600;5.718;2022-11-15T04:48:58;20.40;;;11.10;;
68438;SDS011;55421;51.600;5.718;2022-11-15T04:51:26;18.00;;;12.10;;
68438;SDS011;55421;51.600;5.718;2022-11-15T04:53:52;21.70;;;12.60;;
68438;SDS011;55421;51.600;5.718;2022-11-15T04:56:19;22.20;;;12.30;;
68438;SDS011;55421;51.600;5.718;2022-11-15T04:58:48;20.20;;;11.80;;
68438;SDS011;55421;51.600;5.718;2022-11-15T05:01:16;19.80;;;12.30;;
68438;SDS011;55421;51.600;5.718;2022-11-15T05:03:43;18.20;;;10.30;;
68438;SDS011;55421;51.600;5.718;2022-11-15T05:06:29;17.60;;;10.70;;
68438;SDS011;55421;51.600;5.718;2022-11-15T05:08:57;20.30;;;12.00;;
68438;SDS011;55421;51.600;5.718;2022-11-15T05:11:24;19.10;;;12.70;;
68438;SDS011;55421;51.600;5.718;2022-11-15T05:13:50;19.10;;;12.00;;
68438;SDS011;55421;51.600;5.718;2022-11-15T05:16:17;18.20;;;10.90;;
68438;SDS011;55421;51.600;5.718;2022-11-15T05:18:43;18.60;;;10.80;;
68438;SDS011;55421;51.600;5.718;2022-11-15T05:21:12;17.60;;;11.50;;
68438;SDS011;55421;51.600;5.718;2022-11-15T05:23:41;19.70;;;11.90;;
68438;SDS011;55421;51.600;5.718;2022-11-15T05:26:08;20.60;;;12.80;;
68438;SDS011;55421;51.600;5.718;2022-11-15T05:28:36;17.10;;;11.20;;
68438;SDS011;55421;51.600;5.718;2022-11-15T05:31:11;15.50;;;10.20;;
68438;SDS011;55421;51.600;5.718;2022-11-15T05:33:40;19.80;;;11.20;;
68438;SDS011;55421;51.600;5.718;2022-11-15T05:38:53;18.10;;;12.50;;
68438;SDS011;55421;51.600;5.718;2022-11-15T05:41:22;17.90;;;11.90;;
68438;SDS011;55421;51.600;5.718;2022-11-15T05:43:56;18.00;;;11.40;;
68438;SDS011;55421;51.600;5.718;2022-11-15T05:46:23;15.70;;;10.50;;
68438;SDS011;55421;51.600;5.718;2022-11-15T05:48:52;14.40;;;10.30;;
68438;SDS011;55421;51.600;5.718;2022-11-15T05:51:21;12.80;;;9.90;;
68438;SDS011;55421;51.600;5.718;2022-11-15T05:53:50;15.20;;;10.40;;
68438;SDS011;55421;51.600;5.718;2022-11-15T05:56:18;18.30;;;10.80;;
68438;SDS011;55421;51.600;5.718;2022-11-15T05:58:45;15.00;;;10.10;;
68438;SDS011;55421;51.600;5.718;2022-11-15T06:01:12;16.20;;;10.00;;
68438;SDS011;55421;51.600;5.718;2022-11-15T06:03:38;14.80;;;10.00;;
68438;SDS011;55421;51.600;5.718;2022-11-15T06:06:05;13.40;;;8.80;;
68438;SDS011;55421;51.600;5.718;2022-11-15T06:08:32;15.80;;;10.30;;
68438;SDS011;55421;51.600;5.718;2022-11-15T06:11:06;14.80;;;10.30;;
68438;SDS011;55421;51.600;5.718;2022-11-15T06:13:33;18.30;;;10.80;;
68438;SDS011;55421;51.600;5.718;2022-11-15T06:16:00;14.30;;;9.60;;
68438;SDS011;55421;51.600;5.718;2022-11-15T06:18:27;12.90;;;8.90;;
68438;SDS011;55421;51.600;5.718;2022-11-15T06:20:53;11.50;;;8.50;;
68438;SDS011;55421;51.600;5.718;2022-11-15T06:23:24;12.40;;;8.70;;
68438;SDS011;55421;51.600;5.718;2022-11-15T06:25:50;14.60;;;9.00;;
68438;SDS011;55421;51.600;5.718;2022-11-15T06:28:17;12.20;;;9.40;;
68438;SDS011;55421;51.600;5.718;2022-11-15T06:30:43;15.20;;;10.10;;
68438;SDS011;55421;51.600;5.718;2022-11-15T06:33:10;12.60;;;9.10;;
68438;SDS011;55421;51.600;5.718;2022-11-15T06:35:37;13.20;;;8.90;;
68438;SDS011;55421;51.600;5.718;2022-11-15T06:38:09;13.00;;;8.40;;
68438;SDS011;55421;51.600;5.718;2022-11-15T06:40:39;12.00;;;8.40;;
68438;SDS011;55421;51.600;5.718;2022-11-15T06:43:06;13.70;;;9.00;;
68438;SDS011;55421;51.600;5.718;2022-11-15T06:45:33;12.90;;;8.40;;
68438;SDS011;55421;51.600;5.718;2022-11-15T06:48:00;12.90;;;9.50;;
68438;SDS011;55421;51.600;5.718;2022-11-15T06:50:26;11.70;;;8.30;;
68438;SDS011;55421;51.600;5.718;2022-11-15T06:52:53;14.10;;;8.70;;
68438;SDS011;55421;51.600;5.718;2022-11-15T06:55:20;12.40;;;8.10;;
68438;SDS011;55421;51.600;5.718;2022-11-15T06:57:49;11.60;;;7.90;;
68438;SDS011;55421;51.600;5.718;2022-11-15T07:00:19;13.60;;;8.60;;
68438;SDS011;55421;51.600;5.718;2022-11-15T07:02:47;15.00;;;8.50;;
68438;SDS011;55421;51.600;5.718;2022-11-15T07:05:14;13.00;;;9.20;;
68438;SDS011;55421;51.600;5.718;2022-11-15T07:07:41;16.10;;;9.10;;
68438;SDS011;55421;51.600;5.718;2022-11-15T07:10:09;13.20;;;9.50;;
68438;SDS011;55421;51.600;5.718;2022-11-15T07:12:35;19.10;;;8.40;;
68438;SDS011;55421;51.600;5.718;2022-11-15T07:15:02;11.10;;;7.50;;
68438;SDS011;55421;51.600;5.718;2022-11-15T07:17:29;10.30;;;7.30;;
68438;SDS011;55421;51.600;5.718;2022-11-15T07:19:55;12.20;;;7.80;;
68438;SDS011;55421;51.600;5.718;2022-11-15T07:22:22;9.80;;;7.40;;
68438;SDS011;55421;51.600;5.718;2022-11-15T07:24:48;9.40;;;7.20;;
68438;SDS011;55421;51.600;5.718;2022-11-15T07:27:15;10.90;;;7.20;;
68438;SDS011;55421;51.600;5.718;2022-11-15T07:29:41;9.50;;;7.10;;
68438;SDS011;55421;51.600;5.718;2022-11-15T07:32:09;10.40;;;6.70;;
68438;SDS011;55421;51.600;5.718;2022-11-15T07:34:35;10.70;;;7.20;;
68438;SDS011;55421;51.600;5.718;2022-11-15T07:37:02;11.40;;;6.70;;
68438;SDS011;55421;51.600;5.718;2022-11-15T07:39:28;21.90;;;7.40;;
68438;SDS011;55421;51.600;5.718;2022-11-15T07:41:59;8.00;;;6.70;;
68438;SDS011;55421;51.600;5.718;2022-11-15T07:44:45;12.40;;;6.80;;
68438;SDS011;55421;51.600;5.718;2022-11-15T07:47:11;12.00;;;7.90;;
68438;SDS011;55421;51.600;5.718;2022-11-15T07:49:38;8.90;;;7.20;;
68438;SDS011;55421;51.600;5.718;2022-11-15T07:52:05;13.10;;;6.80;;
68438;SDS011;55421;51.600;5.718;2022-11-15T07:54:31;11.10;;;7.00;;
68438;SDS011;55421;51.600;5.718;2022-11-15T07:56:58;11.80;;;7.20;;
68438;SDS011;55421;51.600;5.718;2022-11-15T07:59:24;9.70;;;7.20;;
68438;SDS011;55421;51.600;5.718;2022-11-15T08:01:51;9.80;;;7.00;;
68438;SDS011;55421;51.600;5.718;2022-11-15T08:04:17;12.90;;;8.20;;
68438;SDS011;55421;51.600;5.718;2022-11-15T08:06:44;9.90;;;7.50;;
68438;SDS011;55421;51.600;5.718;2022-11-15T08:09:10;10.90;;;7.80;;
68438;SDS011;55421;51.600;5.718;2022-11-15T08:11:37;10.30;;;7.40;;
68438;SDS011;55421;51.600;5.718;2022-11-15T08:14:03;13.20;;;6.70;;
68438;SDS011;55421;51.600;5.718;2022-11-15T08:16:30;11.90;;;6.60;;
68438;SDS011;55421;51.600;5.718;2022-11-15T08:18:56;12.20;;;6.20;;
68438;SDS011;55421;51.600;5.718;2022-11-15T08:21:23;9.10;;;6.10;;
68438;SDS011;55421;51.600;5.718;2022-11-15T08:23:50;9.80;;;6.40;;
68438;SDS011;55421;51.600;5.718;2022-11-15T08:26:16;12.00;;;6.00;;
68438;SDS011;55421;51.600;5.718;2022-11-15T08:28:43;8.60;;;5.40;;
68438;SDS011;55421;51.600;5.718;2022-11-15T08:31:14;6.50;;;4.70;;
68438;SDS011;55421;51.600;5.718;2022-11-15T08:33:43;8.70;;;6.30;;
68438;SDS011;55421;51.600;5.718;2022-11-15T08:36:15;11.70;;;6.60;;
68438;SDS011;55421;51.600;5.718;2022-11-15T08:38:43;9.90;;;6.20;;
68438;SDS011;55421;51.600;5.718;2022-11-15T08:41:23;11.10;;;6.50;;
68438;SDS011;55421;51.600;5.718;2022-11-15T08:43:52;8.50;;;5.70;;
68438;SDS011;55421;51.600;5.718;2022-11-15T08:46:19;8.00;;;5.80;;
68438;SDS011;55421;51.600;5.718;2022-11-15T08:48:46;11.00;;;6.10;;
68438;SDS011;55421;51.600;5.718;2022-11-15T08:51:12;6.30;;;5.00;;
68438;SDS011;55421;51.600;5.718;2022-11-15T08:53:39;8.30;;;5.00;;
68438;SDS011;55421;51.600;5.718;2022-11-15T08:56:10;8.60;;;5.10;;
68438;SDS011;55421;51.600;5.718;2022-11-15T08:58:39;9.40;;;5.60;;
68438;SDS011;55421;51.600;5.718;2022-11-15T09:01:06;8.70;;;5.80;;
68438;SDS011;55421;51.600;5.718;2022-11-15T09:03:44;8.40;;;5.30;;
68438;SDS011;55421;51.600;5.718;2022-11-15T09:06:11;10.00;;;5.40;;
68438;SDS011;55421;51.600;5.718;2022-11-15T09:08:38;6.50;;;5.10;;
68438;SDS011;55421;51.600;5.718;2022-11-15T09:11:07;10.00;;;5.20;;
68438;SDS011;55421;51.600;5.718;2022-11-15T09:13:36;7.90;;;4.90;;
68438;SDS011;55421;51.600;5.718;2022-11-15T09:16:03;6.20;;;5.10;;
68438;SDS011;55421;51.600;5.718;2022-11-15T09:18:31;7.70;;;4.50;;
68438;SDS011;55421;51.600;5.718;2022-11-15T09:20:59;7.30;;;4.60;;
68438;SDS011;55421;51.600;5.718;2022-11-15T09:23:26;8.10;;;4.40;;
68438;SDS011;55421;51.600;5.718;2022-11-15T09:25:58;6.60;;;4.20;;
68438;SDS011;55421;51.600;5.718;2022-11-15T09:28:27;5.70;;;4.10;;
68438;SDS011;55421;51.600;5.718;2022-11-15T09:30:58;8.00;;;4.60;;
68438;SDS011;55421;51.600;5.718;2022-11-15T09:33:26;6.50;;;4.10;;
68438;SDS011;55421;51.600;5.718;2022-11-15T09:35:53;5.80;;;3.90;;
68438;SDS011;55421;51.600;5.718;2022-11-15T09:38:20;5.30;;;4.30;;
68438;SDS011;55421;51.600;5.718;2022-11-15T09:40:57;5.60;;;4.00;;
68438;SDS011;55421;51.600;5.718;2022-11-15T09:47:02;4.50;;;3.60;;
68438;SDS011;55421;51.600;5.718;2022-11-15T09:49:33;4.20;;;2.80;;
68438;SDS011;55421;51.600;5.718;2022-11-15T09:52:00;3.70;;;3.10;;
68438;SDS011;55421;51.600;5.718;2022-11-15T09:54:38;4.50;;;3.00;;
68438;SDS011;55421;51.600;5.718;2022-11-15T09:57:23;5.80;;;3.60;;
68438;SDS011;55421;51.600;5.718;2022-11-15T10:00:13;2.60;;;2.30;;
68438;SDS011;55421;51.600;5.718;2022-11-15T10:03:14;3.50;;;2.70;;
68438;SDS011;55421;51.600;5.718;2022-11-15T10:05:45;5.70;;;2.70;;
68438;SDS011;55421;51.600;5.718;2022-11-15T10:11:31;4.70;;;3.00;;
68438;SDS011;55421;51.600;5.718;2022-11-15T10:14:04;5.40;;;2.80;;
68438;SDS011;55421;51.600;5.718;2022-11-15T10:17:01;3.10;;;2.20;;
68438;SDS011;55421;51.600;5.718;2022-11-15T10:19:59;3.70;;;1.70;;
68438;SDS011;55421;51.600;5.718;2022-11-15T10:22:43;3.60;;;2.30;;
68438;SDS011;55421;51.600;5.718;2022-11-15T10:25:21;2.30;;;1.90;;
68438;SDS011;55421;51.600;5.718;2022-11-15T10:27:54;4.20;;;1.90;;
68438;SDS011;55421;51.600;5.718;2022-11-15T10:30:53;3.10;;;2.00;;
68438;SDS011;55421;51.600;5.718;2022-11-15T10:33:37;3.60;;;1.80;;
68438;SDS011;55421;51.600;5.718;2022-11-15T10:41:21;3.90;;;1.50;;
68438;SDS011;55421;51.600;5.718;2022-11-15T10:47:02;3.90;;;1.80;;
68438;SDS011;55421;51.600;5.718;2022-11-15T10:49:33;6.40;;;2.30;;
68438;SDS011;55421;51.600;5.718;2022-11-15T10:52:19;4.40;;;1.50;;
68438;SDS011;55421;51.600;5.718;2022-11-15T10:54:56;2.40;;;1.30;;
68438;SDS011;55421;51.600;5.718;2022-11-15T10:57:30;4.40;;;1.80;;
68438;SDS011;55421;51.600;5.718;2022-11-15T11:00:06;3.80;;;1.80;;
68438;SDS011;55421;51.600;5.718;2022-11-15T11:05:32;4.10;;;1.80;;
68438;SDS011;55421;51.600;5.718;2022-11-15T11:08:19;3.00;;;1.40;;
68438;SDS011;55421;51.600;5.718;2022-11-15T11:10:53;3.00;;;1.50;;
68438;SDS011;55421;51.600;5.718;2022-11-15T11:13:24;3.20;;;1.60;;
68438;SDS011;55421;51.600;5.718;2022-11-15T11:16:08;3.00;;;1.50;;
68438;SDS011;55421;51.600;5.718;2022-11-15T11:21:51;6.40;;;1.80;;
68438;SDS011;55421;51.600;5.718;2022-11-15T11:45:42;2.20;;;1.30;;
68438;SDS011;55421;51.600;5.718;2022-11-15T11:50:53;3.00;;;1.30;;
68438;SDS011;55421;51.600;5.718;2022-11-15T11:53:37;2.60;;;1.40;;
68438;SDS011;55421;51.600;5.718;2022-11-15T11:56:18;6.40;;;1.70;;
68438;SDS011;55421;51.600;5.718;2022-11-15T11:58:53;2.40;;;1.90;;
68438;SDS011;55421;51.600;5.718;2022-11-15T12:01:40;5.20;;;2.10;;
68438;SDS011;55421;51.600;5.718;2022-11-15T12:04:25;4.90;;;1.90;;
68438;SDS011;55421;51.600;5.718;2022-11-15T12:07:02;3.10;;;1.90;;
68438;SDS011;55421;51.600;5.718;2022-11-15T12:12:31;2.90;;;1.60;;
68438;SDS011;55421;51.600;5.718;2022-11-15T12:15:13;3.20;;;1.60;;
68438;SDS011;55421;51.600;5.718;2022-11-15T12:17:44;6.20;;;2.20;;
68438;SDS011;55421;51.600;5.718;2022-11-15T12:20:18;5.00;;;1.90;;
68438;SDS011;55421;51.600;5.718;2022-11-15T12:23:00;5.20;;;1.90;;
68438;SDS011;55421;51.600;5.718;2022-11-15T12:25:43;3.60;;;1.70;;
68438;SDS011;55421;51.600;5.718;2022-11-15T12:28:45;3.10;;;1.60;;
68438;SDS011;55421;51.600;5.718;2022-11-15T12:31:40;5.70;;;1.70;;
68438;SDS011;55421;51.600;5.718;2022-11-15T12:34:34;4.80;;;1.70;;
68438;SDS011;55421;51.600;5.718;2022-11-15T12:37:47;4.10;;;2.00;;
68438;SDS011;55421;51.600;5.718;2022-11-15T12:40:23;3.60;;;1.20;;
68438;SDS011;55421;51.600;5.718;2022-11-15T12:45:41;4.00;;;1.30;;
68438;SDS011;55421;51.600;5.718;2022-11-15T13:06:47;5.00;;;1.10;;
68438;SDS011;55421;51.600;5.718;2022-11-15T13:14:50;3.30;;;1.10;;
68438;SDS011;55421;51.600;5.718;2022-11-15T13:19:58;4.40;;;1.20;;
68438;SDS011;55421;51.600;5.718;2022-11-15T13:30:48;3.50;;;1.00;;
68438;SDS011;55421;51.600;5.718;2022-11-15T13:33:27;3.40;;;1.20;;
68438;SDS011;55421;51.600;5.718;2022-11-15T13:36:15;5.10;;;1.30;;
68438;SDS011;55421;51.600;5.718;2022-11-15T13:38:58;3.60;;;1.80;;
68438;SDS011;55421;51.600;5.718;2022-11-15T13:41:30;2.60;;;1.40;;
68438;SDS011;55421;51.600;5.718;2022-11-15T13:44:00;3.80;;;1.60;;
68438;SDS011;55421;51.600;5.718;2022-11-15T13:46:29;3.10;;;1.10;;
68438;SDS011;55421;51.600;5.718;2022-11-15T13:49:04;5.30;;;1.70;;
68438;SDS011;55421;51.600;5.718;2022-11-15T13:51:49;3.20;;;1.10;;
68438;SDS011;55421;51.600;5.718;2022-11-15T13:57:25;3.50;;;0.70;;
68438;SDS011;55421;51.600;5.718;2022-11-15T13:59:57;6.60;;;1.30;;
68438;SDS011;55421;51.600;5.718;2022-11-15T14:02:32;2.30;;;0.80;;
68438;SDS011;55421;51.600;5.718;2022-11-15T14:05:15;2.80;;;0.90;;
68438;SDS011;55421;51.600;5.718;2022-11-15T14:07:54;2.90;;;1.30;;
68438;SDS011;55421;51.600;5.718;2022-11-15T14:10:34;3.10;;;1.00;;
68438;SDS011;55421;51.600;5.718;2022-11-15T14:13:04;2.70;;;1.00;;
68438;SDS011;55421;51.600;5.718;2022-11-15T14:15:38;2.30;;;1.00;;
68438;SDS011;55421;51.600;5.718;2022-11-15T14:18:42;3.30;;;1.10;;
68438;SDS011;55421;51.600;5.718;2022-11-15T14:21:11;2.60;;;1.00;;
68438;SDS011;55421;51.600;5.718;2022-11-15T14:23:38;4.10;;;0.90;;
68438;SDS011;55421;51.600;5.718;2022-11-15T14:26:05;6.70;;;1.10;;
68438;SDS011;55421;51.600;5.718;2022-11-15T14:28:33;3.40;;;1.30;;
68438;SDS011;55421;51.600;5.718;2022-11-15T14:31:11;6.60;;;1.20;;
68438;SDS011;55421;51.600;5.718;2022-11-15T14:33:41;2.70;;;1.40;;
68438;SDS011;55421;51.600;5.718;2022-11-15T14:38:39;1.70;;;1.20;;
68438;SDS011;55421;51.600;5.718;2022-11-15T14:41:17;2.60;;;1.00;;
68438;SDS011;55421;51.600;5.718;2022-11-15T14:43:45;2.30;;;1.20;;
68438;SDS011;55421;51.600;5.718;2022-11-15T14:46:11;5.90;;;1.50;;
68438;SDS011;55421;51.600;5.718;2022-11-15T14:48:38;5.80;;;1.40;;
68438;SDS011;55421;51.600;5.718;2022-11-15T14:51:13;2.90;;;1.50;;
68438;SDS011;55421;51.600;5.718;2022-11-15T14:53:42;4.60;;;2.30;;
68438;SDS011;55421;51.600;5.718;2022-11-15T14:56:10;4.30;;;1.70;;
68438;SDS011;55421;51.600;5.718;2022-11-15T14:58:38;2.60;;;1.70;;
68438;SDS011;55421;51.600;5.718;2022-11-15T15:01:14;3.00;;;2.00;;
68438;SDS011;55421;51.600;5.718;2022-11-15T15:03:45;4.90;;;2.30;;
68438;SDS011;55421;51.600;5.718;2022-11-15T15:06:12;6.90;;;1.80;;
68438;SDS011;55421;51.600;5.718;2022-11-15T15:08:40;4.50;;;1.50;;
68438;SDS011;55421;51.600;5.718;2022-11-15T15:11:14;4.40;;;1.30;;
68438;SDS011;55421;51.600;5.718;2022-11-15T15:13:42;2.40;;;1.30;;
68438;SDS011;55421;51.600;5.718;2022-11-15T15:16:09;1.80;;;1.00;;
68438;SDS011;55421;51.600;5.718;2022-11-15T15:18:35;3.20;;;1.00;;
68438;SDS011;55421;51.600;5.718;2022-11-15T15:21:02;3.20;;;1.40;;
68438;SDS011;55421;51.600;5.718;2022-11-15T15:23:33;2.70;;;1.00;;
68438;SDS011;55421;51.600;5.718;2022-11-15T15:26:01;2.70;;;1.10;;
68438;SDS011;55421;51.600;5.718;2022-11-15T15:28:29;5.30;;;0.90;;
68438;SDS011;55421;51.600;5.718;2022-11-15T15:30:56;5.20;;;1.10;;
68438;SDS011;55421;51.600;5.718;2022-11-15T15:33:22;2.90;;;1.30;;
68438;SDS011;55421;51.600;5.718;2022-11-15T15:35:49;4.90;;;1.30;;
68438;SDS011;55421;51.600;5.718;2022-11-15T15:38:15;4.10;;;1.20;;
68438;SDS011;55421;51.600;5.718;2022-11-15T15:40:42;3.50;;;1.40;;
68438;SDS011;55421;51.600;5.718;2022-11-15T15:43:08;3.20;;;1.50;;
68438;SDS011;55421;51.600;5.718;2022-11-15T15:45:40;2.60;;;0.90;;
68438;SDS011;55421;51.600;5.718;2022-11-15T15:48:11;3.00;;;1.00;;
68438;SDS011;55421;51.600;5.718;2022-11-15T15:50:40;3.20;;;1.00;;
68438;SDS011;55421;51.600;5.718;2022-11-15T15:53:10;4.70;;;1.50;;
68438;SDS011;55421;51.600;5.718;2022-11-15T15:55:37;3.80;;;1.50;;
68438;SDS011;55421;51.600;5.718;2022-11-15T15:58:05;4.50;;;1.80;;
68438;SDS011;55421;51.600;5.718;2022-11-15T16:00:32;5.50;;;1.90;;
68438;SDS011;55421;51.600;5.718;2022-11-15T16:02:59;6.30;;;2.10;;
68438;SDS011;55421;51.600;5.718;2022-11-15T16:05:26;10.60;;;2.90;;
68438;SDS011;55421;51.600;5.718;2022-11-15T16:07:52;4.30;;;1.90;;
68438;SDS011;55421;51.600;5.718;2022-11-15T16:10:31;4.20;;;1.80;;
68438;SDS011;55421;51.600;5.718;2022-11-15T16:13:00;4.50;;;1.70;;
68438;SDS011;55421;51.600;5.718;2022-11-15T16:15:29;6.60;;;1.60;;
68438;SDS011;55421;51.600;5.718;2022-11-15T16:17:59;4.40;;;2.00;;
68438;SDS011;55421;51.600;5.718;2022-11-15T16:23:10;4.80;;;2.00;;
68438;SDS011;55421;51.600;5.718;2022-11-15T16:25:51;5.80;;;1.80;;
68438;SDS011;55421;51.600;5.718;2022-11-15T16:28:20;4.50;;;2.00;;
68438;SDS011;55421;51.600;5.718;2022-11-15T16:30:50;3.80;;;2.20;;
68438;SDS011;55421;51.600;5.718;2022-11-15T16:33:26;8.30;;;2.40;;
68438;SDS011;55421;51.600;5.718;2022-11-15T16:35:52;5.30;;;2.10;;
68438;SDS011;55421;51.600;5.718;2022-11-15T16:38:19;6.50;;;2.50;;
68438;SDS011;55421;51.600;5.718;2022-11-15T16:40:46;3.60;;;2.20;;
68438;SDS011;55421;51.600;5.718;2022-11-15T16:43:12;6.90;;;1.80;;
68438;SDS011;55421;51.600;5.718;2022-11-15T16:45:39;3.70;;;1.80;;
68438;SDS011;55421;51.600;5.718;2022-11-15T16:48:05;3.00;;;1.60;;
68438;SDS011;55421;51.600;5.718;2022-11-15T16:50:33;5.30;;;1.60;;
68438;SDS011;55421;51.600;5.718;2022-11-15T16:53:06;4.90;;;1.80;;
68438;SDS011;55421;51.600;5.718;2022-11-15T16:55:33;3.40;;;1.90;;
68438;SDS011;55421;51.600;5.718;2022-11-15T16:58:00;4.20;;;1.80;;
68438;SDS011;55421;51.600;5.718;2022-11-15T17:00:27;4.50;;;1.60;;
68438;SDS011;55421;51.600;5.718;2022-11-15T17:02:54;4.70;;;2.00;;
68438;SDS011;55421;51.600;5.718;2022-11-15T17:05:22;3.40;;;1.80;;
68438;SDS011;55421;51.600;5.718;2022-11-15T17:07:50;5.00;;;1.80;;
68438;SDS011;55421;51.600;5.718;2022-11-15T17:10:21;2.60;;;2.10;;
68438;SDS011;55421;51.600;5.718;2022-11-15T17:12:49;3.00;;;2.20;;